航空気象通報

ウインドサーファーのための航空気象通報による風予報です。

12/30-12/31の航空気象通報(国内、海外)

2011年12月30日 20時56分53秒 | TAF

羽田空港
TAF RJTT 300839Z 3009/3112 35014KT 9999 FEW030
      BECMG 3106/3109 08005KT
日本時間30日18時-31日15時:350度から14ノットの風
15-18時:風が変化
18-21時:080度から5ノットの風

富士山静岡空港
TAF RJNS 300839Z 3009/3112 27006KT 9999 FEW030
      BECMG 3100/3103 16004KT
      BECMG 3106/3109 24006KT
日本時間30日18時-31日09時:270度から6ノットの風
09-12時:風が変化
12-15時:160度から4ノットの風
15-18時:風が変化
18-21時:240度から6ノットの風

福岡空港
TAF RJFF 300846Z 3009/3112 14006KT 9999 FEW030 SCT045
日本時間30日18時-31日21時:140度から6ノットの風

那覇空港
TAF ROAH 300838Z 3009/3112 02013KT 9999 FEW025 BKN040
日本時間30日18時-31日21時:020度から13ノットの風

マウイのカフルイ空港
TAF PHOG 301132Z 3012/3112 05007KT P6SM FEW025 SCT050
     FM302000 05012G18KT P6SM FEW025 SCT045
     FM310400 12008KT P6SM FEW025
ハワイ時間30日02-10時:050度から7ノットの風
10-18時:050度から12ノット、突風18ノット
18時-31日02時:120度から8ノットの風

サイパン空港
TAF PGSN 301123Z 3012/3112 07012KT P6SM VCSH FEW020 SCT060
     FM302200 07014G24KT P6SM VCSH FEW020 SCT050
マリアナ時間30日22時-31日08時:070度から12ノットの風
08-22時:070度から14ノット、突風24ノット

コメント

12/29-12/30の航空気象通報(国内、海外)

2011年12月29日 19時26分25秒 | TAF

羽田空港
TAF RJTT 290837Z 2909/3012 23006KT 9999 FEW030 BKN050
      BECMG 2909/2910 34016KT
日本時間29日18時:230度から6ノットの風
18-19時:風が変化
19時-30日21時:340度から16ノットの風

富士山静岡空港
TAF RJNS 290839Z 2909/3012 27014KT 9999 FEW030
      TEMPO 3003/3006 27020G30KT
日本時間29日18時-30日21時:270度から14ノットの風
但し、30日12-15時:270度から20ノット、突風30ノット

福岡空港
TAF RJFF 290844Z 2909/3012 31005KT 9999 FEW030 SCT045
      BECMG 2918/2921 14003KT
      BECMG 3003/3006 04006KT
      BECMG 3009/3012 14005KT
日本時間29日18時-30日03時:310度から5ノットの風
03-06時:風が変化
06-12時:140度から3ノットの風
12-15時:風が変化
15-21時:140度から5ノットの風

那覇空港
TAF ROAH 290843Z 2909/3012 03006KT 9999 FEW030 SCT045
      TEMPO 2915/2918 4000 SHRA
      BECMG 2916/2918 03016KT
日本時間29日18時-30日01時:030度から6ノットの風
01-03時:風が変化
03-21時:030度から16ノットの風

 

マウイのカフルイ空港
TAF PHOG 291140Z 2912/3012 05013KT P6SM FEW025 SCT045
     FM291900 06017G25KT P6SM FEW030 SCT050
     FM300500 05012KT P6SM FEW025 SCT045
     FM301000 04008KT P6SM FEW025 SCT045
ハワイ時間29日02-10時:050度から13ノットの風
10-19時:060度から17ノット、突風25ノット
19-24時:050度から12ノットの風
30日00-02時:040度から8ノットの風

サイパン空港
TAF PGSN 291132Z 2912/3012 06012KT P6SM VCSH SCT020 SCT060 BKN120
     FM292200 07014G25KT P6SM VCSH SCT020 SCT060
マリアナ時間29日22時-30日08時:060度から12ノットの風

08-22時:070度から14ノット、突風25ノット

 

コメント

12/28-12/29の航空気象通報(国内、海外)

2011年12月28日 22時29分50秒 | TAF

羽田空港
TAF RJTT 280837Z 2809/2912 08008KT 9999 FEW020 SCT050
      BECMG 2812/2814 04010KT
      BECMG 2900/2903 16006KT
      BECMG 2909/2912 34015KT
日本時間28日18-21時:080度から8ノットの風
21-23時:風が変化
23時-29日09時:040度から10ノットの風
09-12時:風が変化
12-18時:160度から6ノットの風
18-21時:風が変化
21時:340度から15ノットの風

富士山静岡空港
TAF RJNS 280839Z 2809/2912 30006KT 9999 FEW020 BKN040
      BECMG 2900/2903 26016KT
日本時間28日18時-29日09時:300度から6ノットの風
09-12時:風が変化
12-21時:260度から16ノットの風

福岡空港
TAF RJFF 280845Z 2809/2912 30005KT 9999 FEW035
      BECMG 2812/2814 14004KT
      BECMG 2900/2903 33007KT
日本時間28日18-21時:300度から5ノットの風
21-23時:風が変化
23時-29日09時:140度から4ノットの風
09-12時:風が変化
12-21時:330度から7ノットの風

那覇空港
TAF ROAH 280839Z 2809/2912 08006KT 9999 FEW035
日本時間28日18時-29日21時:080度から6ノットの風

マウイのカフルイ空港
TAF PHOG 281122Z 2812/2912 05012KT P6SM FEW025 SCT050
     FM282000 06016G24KT P6SM FEW030 SCT050
     FM290500 05011KT P6SM FEW030 FEW050
ハワイ時間28日02-10時:050度から12ノットの風
10-19時:060度から16ノット、突風24ノット
19時-29日02時:050度から11ノットの風

サイパン空港
TAF PGSN 281120Z 2812/2912 06011KT P6SM VCSH FEW020 SCT060
     FM282200 06013G24KT P6SM VCSH SCT020 SCT050
マリアナ時間28日22時-29日08時:060度から11ノットの風
08-22時:060度から13ノット、突風24ノット

コメント

12/27-12/28の航空気象通報(国内、海外)

2011年12月27日 22時57分53秒 | TAF

羽田空港
TAF RJTT 270840Z 2709/2812 35012KT 9999 FEW030
      BECMG 2803/2806 07007KT
日本時間27日18-12時:350度から12ノットの風
12-15時:風が変化
15-21時:070度から7ノットの風

富士山静岡空港
TAF RJNS 270838Z 2709/2812 28010KT 9999 FEW030
      BECMG 2800/2803 16006KT
      BECMG 2806/2809 26008KT
日本時間27日18時-28日09時:280度から10ノットの風
09-12時:風が変化
12-15時:160度から6ノットの風
15-18時:風が変化
18-21時:260度から8ノットの風

福岡空港
TAF RJFF 270850Z 2709/2812 35005KT 9999 FEW040
      BECMG 2709/2711 12005KT
      BECMG 2803/2806 02005KT
      BECMG 2809/2812 13004KT
日本時間27日18時:350度から5ノットの風
18-20時:風が変化
20時-28日12時:120度から5ノットの風
12-15時:風が変化
15-18時:020度から5ノットの風
18-21時:風が変化
21時:130度から4ノットの風

那覇空港
TAF ROAH 270837Z 2709/2812 05007KT 9999 SCT030
日本時間27日18時-28日21時:050度から7ノットの風

マウイのカフルイ空港
TAF PHOG 271139Z 2712/2812 06011G18KT P6SM FEW035 SCT045 BKN060
     FM272000 06017G24KT P6SM SCT050
     FM280500 06012G19KT P6SM SCT050
     FM280900 06012KT P6SM SCT040
ハワイ時間27日02-10時:060度から11ノット、突風18ノット

10-20時:060度から17ノット、突風24ノット
20-23時:060度から12ノット、突風19ノット
23時-28日02時:060度から12ノットの風

サイパン空港
TAF PGSN 271120Z 2712/2812 07011KT P6SM VCSH SCT020 SCT050
マリアナ時間27日22時-28日22時:070度から11ノットの風

コメント

12/26-12/27の航空気象通報(国内、海外)

2011年12月26日 23時30分44秒 | TAF

羽田空港
TAF RJTT 260840Z 2609/2712 34012KT 9999 FEW030
      BECMG 2613/2615 28007KT
      BECMG 2703/2706 02010KT
日本時間26日18-22時:340度から12ノットの風
22-24時:風が変化
27日00-12時:280度から7ノットの風
12-15時:風が変化
15-21時:020度から10ノットの風

富士山静岡空港
TAF RJNS 260839Z 2609/2712 27012KT 9999 FEW030
日本時間26日18時-27日21時:270度から12ノットの風

福岡空港
TAF RJFF 260837Z 2609/2712 35006KT 9999 FEW035 BKN045
      BECMG 2618/2621 14004KT
      BECMG 2700/2703 34007KT
      BECMG 2709/2712 12005KT
日本時間26日18時-27日03時:350度から6ノットの風
03-06時:風が変化
06-09時:140度から4ノットの風
09-12時:風が変化
12-18時:340度から7ノットの風
18-21時:風が変化
21時:120度から5ノットの風

那覇空港
TAF ROAH 260840Z 2609/2712 04011KT 9999 SCT035
日本時間26日18時-27日21時:040度から11ノットの風

マウイのカフルイ空港
TAF PHOG 261134Z 2612/2712 05012G18KT P6SM VCSH BKN050
     FM261400 06010G15KT P6SM SCT050
     FM261800 05018G25KT P6SM SCT050
     FM270600 06010G17KT P6SM SCT050
ハワイ時間26日02-04時:050度から12ノット、突風18ノット
04-08時:060度から10ノット、突風15ノット
08-20時:050度から18ノット、突風25ノット
20時-27日02時:060度から10ノット、突風17ノット

サイパン空港
TAF PGSN 261120Z 2612/2712 06011KT P6SM FEW020 SCT050
マリアナ時間26日22時-27日22時:060度から11ノットの風

コメント